createdAt,value
2017-07-15T00:01:05.669Z,67.25
2017-07-15T00:02:14.596Z,66.96
2017-07-15T00:03:24.151Z,67.35
2017-07-15T00:04:33.102Z,67.06
2017-07-15T00:05:42.756Z,67.06
2017-07-15T00:06:52.715Z,67.06
2017-07-15T00:08:01.908Z,67.54
2017-07-15T00:09:11.217Z,67.35
2017-07-15T00:10:20.137Z,67.35
2017-07-15T00:11:29.515Z,67.35
2017-07-15T00:12:38.734Z,68.02
2017-07-15T00:13:47.650Z,67.92
2017-07-15T00:14:57.170Z,68.02
2017-07-15T00:16:06.283Z,68.3
2017-07-15T00:17:15.229Z,68.02
2017-07-15T00:18:25.113Z,68.02
2017-07-15T00:19:35.057Z,68.21
2017-07-15T00:20:45.082Z,67.92
2017-07-15T00:21:55.230Z,68.02
2017-07-15T00:23:05.158Z,68.12
2017-07-15T00:24:14.874Z,68.79
2017-07-15T00:25:24.870Z,68.88
2017-07-15T00:26:34.824Z,69.36
2017-07-15T00:27:44.733Z,69.36
2017-07-15T00:28:54.694Z,69.17
2017-07-15T00:30:04.660Z,69.56
2017-07-15T00:31:14.330Z,69.56
2017-07-15T00:32:23.251Z,69.17
2017-07-15T00:33:32.454Z,69.56
2017-07-15T00:34:41.948Z,69.36
2017-07-15T00:35:51.205Z,69.07
2017-07-15T00:37:00.129Z,69.36
2017-07-15T00:38:09.360Z,69.26
2017-07-15T00:39:18.523Z,69.93
2017-07-15T00:40:27.582Z,70.51
2017-07-15T00:41:37.074Z,70.23
2017-07-15T00:42:46.563Z,70.51
2017-07-15T00:43:55.520Z,69.84
2017-07-15T00:45:04.916Z,70.51
2017-07-15T00:46:14.904Z,70.23
2017-07-15T00:47:24.932Z,69.84
2017-07-15T00:48:35.127Z,70.51
2017-07-15T00:49:44.759Z,70.32
2017-07-15T00:50:54.160Z,70.32
2017-07-15T00:52:03.072Z,69.84
2017-07-15T00:53:12.161Z,70.23
2017-07-15T00:54:21.240Z,70.7
2017-07-15T00:55:30.164Z,70.32
2017-07-15T00:56:39.530Z,70.9
2017-07-15T00:57:49.195Z,70.42
2017-07-15T00:58:58.481Z,70.9
2017-07-15T01:00:07.405Z,71.19
2017-07-15T01:01:16.327Z,71.09
2017-07-15T01:02:25.252Z,71.37
2017-07-15T01:03:34.173Z,71.47
2017-07-15T01:04:44.321Z,71.57
2017-07-15T01:05:53.575Z,71.28
2017-07-15T01:07:02.592Z,71.47
2017-07-15T01:08:11.519Z,71.86
2017-07-15T01:09:20.447Z,71.76
2017-07-15T01:10:29.498Z,71.57
2017-07-15T01:11:38.435Z,71.19
2017-07-15T01:12:47.441Z,71.09
2017-07-15T01:13:56.537Z,71.28
2017-07-15T01:15:05.576Z,71.47
2017-07-15T01:16:14.581Z,71.86
2017-07-15T01:17:23.505Z,71.86
2017-07-15T01:18:32.421Z,72.05
2017-07-15T01:19:41.401Z,71.76
2017-07-15T01:20:50.645Z,72.14
2017-07-15T01:21:59.804Z,71.86
2017-07-15T01:23:08.770Z,72.05
2017-07-15T01:24:17.691Z,71.95
2017-07-15T01:25:26.941Z,71.57
2017-07-15T01:26:35.858Z,71.57
2017-07-15T01:27:44.783Z,71.47
2017-07-15T01:28:53.703Z,71.47
2017-07-15T01:30:02.623Z,70.7
2017-07-15T01:31:11.560Z,70.61
2017-07-15T01:32:20.550Z,70.13
2017-07-15T01:33:29.470Z,69.93
2017-07-15T01:34:38.458Z,69.81
2017-07-15T01:35:47.727Z,69.9
2017-07-15T01:36:56.795Z,69.74
2017-07-15T01:38:05.891Z,69.71
2017-07-15T01:39:14.935Z,70.19
2017-07-15T01:40:23.984Z,70.61
2017-07-15T01:41:32.947Z,70.51
2017-07-15T01:42:41.871Z,69.93
2017-07-15T01:43:51.240Z,69.84
2017-07-15T01:45:00.304Z,69.84
2017-07-15T01:46:09.361Z,69.33
2017-07-15T01:47:18.409Z,69.81
2017-07-15T01:48:27.334Z,69.62
2017-07-15T01:49:36.338Z,69.9
2017-07-15T01:50:45.255Z,69.71
2017-07-15T01:51:54.174Z,70.09
2017-07-15T01:53:03.097Z,70.48
2017-07-15T01:54:12.017Z,70.09
2017-07-15T01:55:20.934Z,70.67
2017-07-15T01:56:29.856Z,70.57
2017-07-15T01:57:38.778Z,70.57
2017-07-15T01:58:47.704Z,70.67
2017-07-15T01:59:56.626Z,70.76
2017-07-15T02:01:05.544Z,71.25
2017-07-15T02:02:14.456Z,71.44
2017-07-15T02:03:23.384Z,71.25
2017-07-15T02:04:32.313Z,71.25
2017-07-15T02:05:41.235Z,71.72
2017-07-15T02:06:50.161Z,71.44
2017-07-15T02:07:59.077Z,72.2
2017-07-15T02:09:07.992Z,71.72
2017-07-15T02:10:16.914Z,72.01
2017-07-15T02:11:25.833Z,72.3
2017-07-15T02:12:35.088Z,72.2
2017-07-15T02:13:44.003Z,72.01
2017-07-15T02:14:52.925Z,72.3
2017-07-15T02:16:01.838Z,72.2
2017-07-15T02:17:10.758Z,72.2
2017-07-15T02:18:19.673Z,72.49
2017-07-15T02:19:28.591Z,72.68
2017-07-15T02:20:37.514Z,72.39
2017-07-15T02:21:46.434Z,72.07
2017-07-15T02:22:55.351Z,71.82
2017-07-15T02:24:04.266Z,72.27
2017-07-15T02:25:13.186Z,72.17
2017-07-15T02:26:22.102Z,72.74
2017-07-15T02:27:31.026Z,72.17
2017-07-15T02:28:39.943Z,73.03
2017-07-15T02:29:48.856Z,72.94
2017-07-15T02:30:57.770Z,72.84
2017-07-15T02:32:06.700Z,73.03
2017-07-15T02:33:15.940Z,72.84
2017-07-15T02:34:24.858Z,73.03
2017-07-15T02:35:33.781Z,72.74
2017-07-15T02:36:42.701Z,73.13
2017-07-15T02:37:51.615Z,73.13
2017-07-15T02:39:00.626Z,73.13
2017-07-15T02:40:09.545Z,73.03
2017-07-15T02:41:18.462Z,72.94
2017-07-15T02:42:27.386Z,73.13
2017-07-15T02:43:36.304Z,73.7
2017-07-15T02:44:45.214Z,73.9
2017-07-15T02:45:54.134Z,74.37
2017-07-15T02:47:03.051Z,73.8
2017-07-15T02:48:11.971Z,73.8
2017-07-15T02:49:20.892Z,74.47
2017-07-15T02:50:29.812Z,74.18
2017-07-15T02:51:38.733Z,73.7
2017-07-15T02:52:47.652Z,73.51
2017-07-15T02:53:56.569Z,74.18
2017-07-15T02:55:05.490Z,73.99
2017-07-15T02:56:14.411Z,74.18
2017-07-15T02:57:23.329Z,74.18
2017-07-15T02:58:32.253Z,74.08
2017-07-15T02:59:41.503Z,73.99
2017-07-15T03:00:50.429Z,74.18
2017-07-15T03:01:59.347Z,74.08
2017-07-15T03:03:08.268Z,74.27
2017-07-15T03:04:17.183Z,74.66
2017-07-15T03:05:26.193Z,74.37
2017-07-15T03:06:35.108Z,74.57
2017-07-15T03:07:44.024Z,74.37
2017-07-15T03:08:52.940Z,74.47
2017-07-15T03:10:01.859Z,75.23
2017-07-15T03:11:10.779Z,75.04
2017-07-15T03:12:19.699Z,74.76
2017-07-15T03:13:28.619Z,75.14
2017-07-15T03:14:37.532Z,75.52
2017-07-15T03:15:46.449Z,75.43
2017-07-15T03:16:55.697Z,76
2017-07-15T03:18:04.616Z,76
2017-07-15T03:19:13.533Z,76.57
2017-07-15T03:20:22.447Z,76
2017-07-15T03:21:31.370Z,76.44
2017-07-15T03:22:40.289Z,76.35
2017-07-15T03:23:49.208Z,76.54
2017-07-15T03:24:58.136Z,76.64
2017-07-15T03:26:07.049Z,76.57
2017-07-15T03:27:15.965Z,77.15
2017-07-15T03:28:24.885Z,76.92
2017-07-15T03:29:33.803Z,77.02
2017-07-15T03:30:42.720Z,76.96
2017-07-15T03:31:51.641Z,77.21
2017-07-15T03:33:00.562Z,77.69
2017-07-15T03:34:09.478Z,77.4
2017-07-15T03:35:18.402Z,77.34
2017-07-15T03:36:27.330Z,77.31
2017-07-15T03:37:36.243Z,77.59
2017-07-15T03:38:45.164Z,77.88
2017-07-15T03:39:54.086Z,78.07
2017-07-15T03:41:03.008Z,77.88
2017-07-15T03:42:11.927Z,77.88
2017-07-15T03:43:20.842Z,77.88
2017-07-15T03:44:29.767Z,78.27
2017-07-15T03:45:38.690Z,78.36
2017-07-15T03:46:47.611Z,78.17
2017-07-15T03:47:56.525Z,78.27
2017-07-15T03:49:05.441Z,78.07
2017-07-15T03:50:14.360Z,78.45
2017-07-15T03:51:23.617Z,78.45
2017-07-15T03:52:32.530Z,78.64
2017-07-15T03:53:41.448Z,79.13
2017-07-15T03:54:50.367Z,78.84
2017-07-15T03:55:59.291Z,78.93
2017-07-15T03:57:08.214Z,78.84
2017-07-15T03:58:17.132Z,79.32
2017-07-15T03:59:26.053Z,79.8
2017-07-15T04:00:34.970Z,79.6
2017-07-15T04:01:43.893Z,79.7
2017-07-15T04:02:52.808Z,79.7
2017-07-15T04:04:01.730Z,79.8
2017-07-15T04:05:10.640Z,79.8
2017-07-15T04:06:19.565Z,79.7
2017-07-15T04:07:28.501Z,79.6
2017-07-15T04:08:37.395Z,79.8
2017-07-15T04:09:46.318Z,79.8
2017-07-15T04:10:55.231Z,79.6
2017-07-15T04:12:04.491Z,80.08
2017-07-15T04:13:13.411Z,79.7
2017-07-15T04:14:22.336Z,80.56
2017-07-15T04:15:31.252Z,79.99
2017-07-15T04:16:40.173Z,80.47
2017-07-15T04:17:49.087Z,80.27
2017-07-15T04:18:58.328Z,80.27
2017-07-15T04:20:07.246Z,80.47
2017-07-15T04:21:16.168Z,80.27
2017-07-15T04:22:25.173Z,80.37
2017-07-15T04:23:34.094Z,80.27
2017-07-15T04:24:43.016Z,80.47
2017-07-15T04:25:51.932Z,80.37
2017-07-15T04:27:00.852Z,79.99
2017-07-15T04:28:09.770Z,80.47
2017-07-15T04:29:18.693Z,80.18
2017-07-15T04:30:27.605Z,80.47
2017-07-15T04:31:36.523Z,80.18
2017-07-15T04:32:45.444Z,80.37
2017-07-15T04:33:54.360Z,79.99
2017-07-15T04:35:03.371Z,80.18
2017-07-15T04:36:12.291Z,80.18
2017-07-15T04:37:21.212Z,80.66
2017-07-15T04:38:30.129Z,80.27
2017-07-15T04:39:39.052Z,80.85
2017-07-15T04:40:47.969Z,80.66
2017-07-15T04:41:56.896Z,80.47
2017-07-15T04:43:05.816Z,80.76
2017-07-15T04:44:14.731Z,80.76
2017-07-15T04:45:23.646Z,80.47
2017-07-15T04:46:32.567Z,80.27
2017-07-15T04:47:41.487Z,80.27
2017-07-15T04:48:50.403Z,80.18
2017-07-15T04:49:59.327Z,80.08
2017-07-15T04:51:08.249Z,79.7
2017-07-15T04:52:17.175Z,79.8
2017-07-15T04:53:26.093Z,79.45
2017-07-15T04:54:35.020Z,79.16
2017-07-15T04:55:43.932Z,79.74
2017-07-15T04:56:52.846Z,79.45
2017-07-15T04:58:01.770Z,79.55
2017-07-15T04:59:10.781Z,79.26
2017-07-15T05:00:19.707Z,79.07
2017-07-15T05:01:28.627Z,79.07
2017-07-15T05:02:37.542Z,79.16
2017-07-15T05:03:46.465Z,79.07
2017-07-15T05:04:55.473Z,78.78
2017-07-15T05:06:04.395Z,78.69
2017-07-15T05:07:13.312Z,78.2
2017-07-15T05:08:22.239Z,78.4
2017-07-15T05:09:31.155Z,78.4
2017-07-15T05:10:40.071Z,78.59
2017-07-15T05:11:48.981Z,78.59
2017-07-15T05:12:57.897Z,78.59
2017-07-15T05:14:06.812Z,78.2
2017-07-15T05:15:15.733Z,78.11
2017-07-15T05:16:24.654Z,77.73
2017-07-15T05:17:33.572Z,78.02
2017-07-15T05:18:42.655Z,78.02
2017-07-15T05:19:51.575Z,77.92
2017-07-15T05:21:00.498Z,77.92
2017-07-15T05:22:09.419Z,78.49
2017-07-15T05:23:18.675Z,78.3
2017-07-15T05:24:27.591Z,78.4
2017-07-15T05:25:36.510Z,78.3
2017-07-15T05:26:45.424Z,78.2
2017-07-15T05:27:54.432Z,78.55
2017-07-15T05:29:03.348Z,77.73
2017-07-15T05:30:12.270Z,78.02
2017-07-15T05:31:21.191Z,77.44
2017-07-15T05:32:30.117Z,77.63
2017-07-15T05:33:39.035Z,77.53
2017-07-15T05:34:47.962Z,77.53
2017-07-15T05:35:56.887Z,77.53
2017-07-15T05:37:05.804Z,77.63
2017-07-15T05:38:15.068Z,77.73
2017-07-15T05:39:23.985Z,77.73
2017-07-15T05:40:32.907Z,77.73
2017-07-15T05:41:41.828Z,77.34
2017-07-15T05:42:50.749Z,77.44
2017-07-15T05:43:59.671Z,77.53
2017-07-15T05:45:08.592Z,77.06
2017-07-15T05:46:17.513Z,76.86
2017-07-15T05:47:26.437Z,77.06
2017-07-15T05:48:35.354Z,77.15
2017-07-15T05:49:44.268Z,77.09
2017-07-15T05:50:53.192Z,77.19
2017-07-15T05:52:02.115Z,77
2017-07-15T05:53:11.120Z,76.52
2017-07-15T05:54:20.039Z,76.81
2017-07-15T05:55:28.959Z,76.32
2017-07-15T05:56:37.881Z,76.52
2017-07-15T05:57:46.799Z,76.52
2017-07-15T05:58:55.723Z,76.42
2017-07-15T06:00:04.637Z,76.32
2017-07-15T06:01:13.554Z,77
2017-07-15T06:02:22.559Z,76.62
2017-07-15T06:03:31.478Z,76.52
2017-07-15T06:04:40.396Z,75.85
2017-07-15T06:05:49.316Z,75.95
2017-07-15T06:06:58.234Z,75.85
2017-07-15T06:08:07.153Z,76.04
2017-07-15T06:09:16.154Z,75.5
2017-07-15T06:10:25.068Z,75.21
2017-07-15T06:11:33.985Z,75.21
2017-07-15T06:12:42.908Z,75.02
2017-07-15T06:13:51.915Z,74.35
2017-07-15T06:15:00.832Z,74.16
2017-07-15T06:16:09.842Z,74.06
2017-07-15T06:17:19.104Z,74.26
2017-07-15T06:18:28.120Z,74.44
2017-07-15T06:19:37.042Z,74.06
2017-07-15T06:20:45.967Z,73.81
2017-07-15T06:21:54.884Z,73.04
2017-07-15T06:23:03.804Z,73.2
2017-07-15T06:24:12.727Z,73.1
2017-07-15T06:25:21.641Z,73.3
2017-07-15T06:26:30.906Z,72.91
2017-07-15T06:27:39.830Z,72.33
2017-07-15T06:28:48.758Z,72.43
2017-07-15T06:29:57.678Z,73.2
2017-07-15T06:31:06.603Z,72.81
2017-07-15T06:32:15.524Z,72.53
2017-07-15T06:33:24.444Z,73.3
2017-07-15T06:34:33.363Z,72.43
2017-07-15T06:35:42.277Z,73.1
2017-07-15T06:36:51.202Z,72.81
2017-07-15T06:38:00.122Z,72.85
2017-07-15T06:39:09.046Z,72.18
2017-07-15T06:40:17.968Z,71.8
2017-07-15T06:41:26.891Z,71.22
2017-07-15T06:42:35.820Z,71.03
2017-07-15T06:43:44.741Z,70.74
2017-07-15T06:44:53.656Z,70.64
2017-07-15T06:46:02.578Z,70.93
2017-07-15T06:47:11.499Z,70.45
2017-07-15T06:48:20.514Z,70.55
2017-07-15T06:49:29.431Z,70.64
2017-07-15T06:50:38.359Z,70.55
2017-07-15T06:51:47.285Z,70.55
2017-07-15T06:52:56.203Z,70.26
2017-07-15T06:54:05.126Z,70.64
2017-07-15T06:55:14.045Z,70.68
2017-07-15T06:56:22.967Z,69.81
2017-07-15T06:57:31.889Z,69.72
2017-07-15T06:58:40.806Z,69.91
2017-07-15T06:59:49.720Z,69.91
2017-07-15T07:00:58.642Z,69.91
2017-07-15T07:02:07.568Z,69.72
2017-07-15T07:03:16.489Z,70.1
2017-07-15T07:04:25.406Z,69.81
2017-07-15T07:05:34.330Z,69.62
2017-07-15T07:06:43.249Z,69.46
2017-07-15T07:07:52.173Z,69.37
2017-07-15T07:09:01.291Z,69.43
2017-07-15T07:10:10.380Z,69.56
2017-07-15T07:11:19.505Z,69.46
2017-07-15T07:12:28.448Z,69.27
2017-07-15T07:13:37.367Z,69.18
2017-07-15T07:14:46.412Z,68.98
2017-07-15T07:15:55.608Z,68.7
2017-07-15T07:17:04.883Z,68.41
2017-07-15T07:18:13.943Z,68.02
2017-07-15T07:19:23.100Z,67.64
2017-07-15T07:20:32.124Z,67.25
2017-07-15T07:21:41.067Z,67.19
2017-07-15T07:22:50.005Z,66.3
2017-07-15T07:23:58.986Z,66.81
2017-07-15T07:25:07.907Z,66.04
2017-07-15T07:26:16.825Z,66.23
2017-07-15T07:27:25.752Z,66.33
2017-07-15T07:28:34.704Z,65.66
2017-07-15T07:29:43.620Z,66.04
2017-07-15T07:30:53.129Z,66.14
2017-07-15T07:32:02.603Z,66.04
2017-07-15T07:33:11.519Z,66.04
2017-07-15T07:34:21.016Z,65.84
2017-07-15T07:35:30.901Z,65.84
2017-07-15T07:36:40.757Z,65.75
2017-07-15T07:37:50.675Z,66.33
2017-07-15T07:39:00.299Z,65.94
2017-07-15T07:40:09.215Z,65.84
2017-07-15T07:41:18.143Z,65.69
2017-07-15T07:42:27.078Z,65.5
2017-07-15T07:43:36.000Z,65.94
2017-07-15T07:44:44.927Z,65.75
2017-07-15T07:45:53.852Z,66.04
2017-07-15T07:47:02.778Z,65.66
2017-07-15T07:48:11.700Z,65.78
2017-07-15T07:49:20.705Z,65.78
2017-07-15T07:50:29.637Z,65.5
2017-07-15T07:51:38.555Z,65.01
2017-07-15T07:52:47.564Z,65.11
2017-07-15T07:53:56.484Z,64.63
2017-07-15T07:55:05.406Z,64.53
2017-07-15T07:56:14.448Z,64.53
2017-07-15T07:57:23.364Z,64.05
2017-07-15T07:58:32.286Z,64.15
2017-07-15T07:59:41.201Z,64.34
2017-07-15T08:00:50.120Z,64.63
2017-07-15T08:01:59.043Z,64.53
2017-07-15T08:03:07.966Z,64.43
2017-07-15T08:04:16.882Z,63.7
2017-07-15T08:05:25.811Z,63.79
2017-07-15T08:06:34.729Z,62.74
2017-07-15T08:07:43.652Z,61.77
2017-07-15T08:08:52.573Z,62.16
2017-07-15T08:10:01.493Z,62.06
2017-07-15T08:11:10.406Z,62.45
2017-07-15T08:12:19.329Z,62.35
2017-07-15T08:13:28.253Z,62.54
2017-07-15T08:14:37.178Z,62.26
2017-07-15T08:15:46.096Z,62.64
2017-07-15T08:16:55.023Z,62.26
2017-07-15T08:18:04.030Z,62.54
2017-07-15T08:19:13.286Z,62.26
2017-07-15T08:20:22.202Z,62.29
2017-07-15T08:21:31.129Z,61.13
2017-07-15T08:22:40.058Z,59.78
2017-07-15T08:23:48.986Z,59.49
2017-07-15T08:24:57.906Z,58.92
2017-07-15T08:26:06.826Z,58.44
2017-07-15T08:27:15.748Z,58.05
2017-07-15T08:28:24.667Z,58.53
2017-07-15T08:29:33.590Z,58.05
2017-07-15T08:30:42.516Z,58.15
2017-07-15T08:31:51.445Z,58.15
2017-07-15T08:33:00.368Z,57.5
2017-07-15T08:34:09.285Z,57.28
2017-07-15T08:35:18.199Z,57.47
2017-07-15T08:36:27.124Z,57.57
2017-07-15T08:37:36.050Z,57.6
2017-07-15T08:38:44.972Z,57.69
2017-07-15T08:39:53.892Z,57.02
2017-07-15T08:41:03.157Z,57.21
2017-07-15T08:42:12.082Z,57.5
2017-07-15T08:43:21.001Z,57.79
2017-07-15T08:44:29.917Z,57.31
2017-07-15T08:45:38.839Z,57.4
2017-07-15T08:46:47.761Z,57.14
2017-07-15T08:47:56.685Z,56.47
2017-07-15T08:49:05.614Z,55.7
2017-07-15T08:50:14.533Z,54.83
2017-07-15T08:51:23.455Z,54.74
2017-07-15T08:52:32.374Z,54.54
2017-07-15T08:53:41.301Z,54.35
2017-07-15T08:54:50.226Z,54.25
2017-07-15T08:55:59.161Z,54.09
2017-07-15T08:57:08.088Z,54.18
2017-07-15T08:58:17.015Z,53.61
2017-07-15T08:59:25.938Z,53.61
2017-07-15T09:00:34.865Z,53.22
2017-07-15T09:01:43.788Z,53.7
2017-07-15T09:02:52.710Z,54.09
2017-07-15T09:04:01.636Z,54.47
2017-07-15T09:05:10.882Z,53.61
2017-07-15T09:06:19.807Z,53.7
2017-07-15T09:07:28.729Z,53.34
2017-07-15T09:08:37.644Z,52.47
2017-07-15T09:09:46.563Z,52.45
2017-07-15T09:10:55.487Z,52.57
2017-07-15T09:12:04.416Z,51.41
2017-07-15T09:13:13.339Z,51.03
2017-07-15T09:14:22.305Z,51.03
2017-07-15T09:15:31.227Z,51.41
2017-07-15T09:16:40.154Z,51.22
2017-07-15T09:17:49.081Z,51.03
2017-07-15T09:18:58.098Z,51.22
2017-07-15T09:20:07.029Z,51.61
2017-07-15T09:21:15.951Z,51.22
2017-07-15T09:22:24.870Z,51.22
2017-07-15T09:23:33.805Z,51.12
2017-07-15T09:24:42.726Z,51.41
2017-07-15T09:25:51.654Z,51.51
2017-07-15T09:27:00.587Z,51.51
2017-07-15T09:28:09.596Z,51.29
2017-07-15T09:29:18.527Z,50.71
2017-07-15T09:30:27.455Z,51.29
2017-07-15T09:31:36.460Z,51.1
2017-07-15T09:32:45.383Z,51.1
2017-07-15T09:33:54.306Z,51.1
2017-07-15T09:35:03.242Z,51.2
2017-07-15T09:36:12.173Z,51.58
2017-07-15T09:37:21.099Z,51.68
2017-07-15T09:38:30.020Z,52.16
2017-07-15T09:39:39.029Z,51.48
2017-07-15T09:40:47.956Z,51
2017-07-15T09:41:56.873Z,50.42
2017-07-15T09:43:05.820Z,49.82
2017-07-15T09:44:14.752Z,50.21
2017-07-15T09:45:23.684Z,50.21
2017-07-15T09:46:32.607Z,50.01
2017-07-15T09:47:41.529Z,50.59
2017-07-15T09:48:50.453Z,50.42
2017-07-15T09:49:59.369Z,50.62
2017-07-15T09:51:08.287Z,51.2
2017-07-15T09:52:17.212Z,51.58
2017-07-15T09:53:26.142Z,50.84
2017-07-15T09:54:35.067Z,51.51
2017-07-15T09:55:43.994Z,51.03
2017-07-15T09:56:52.916Z,51.29
2017-07-15T09:58:01.844Z,51.22
2017-07-15T09:59:10.776Z,51.12
2017-07-15T10:00:19.697Z,51.03
2017-07-15T10:01:28.626Z,51.12
2017-07-15T10:02:38.641Z,51.51
2017-07-15T10:03:49.552Z,51.41
2017-07-15T10:05:00.427Z,51.41
2017-07-15T10:06:09.754Z,51.61
2017-07-15T10:07:18.717Z,51.89
2017-07-15T10:08:27.689Z,52.67
2017-07-15T10:09:36.641Z,52.35
2017-07-15T10:10:45.587Z,52.57
2017-07-15T10:11:54.572Z,52.47
2017-07-15T10:13:03.500Z,52.55
2017-07-15T10:14:12.421Z,53.22
2017-07-15T10:15:21.347Z,54.18
2017-07-15T10:16:30.273Z,55.15
2017-07-15T10:17:39.193Z,55.34
2017-07-15T10:18:48.118Z,56.98
2017-07-15T10:19:57.043Z,57.27
2017-07-15T10:21:05.973Z,57.46
2017-07-15T10:22:14.897Z,57.56
2017-07-15T10:23:23.821Z,57.59
2017-07-15T10:24:32.746Z,57.29
2017-07-15T10:25:41.673Z,57.29
2017-07-15T10:26:50.590Z,57.39
2017-07-15T10:27:59.513Z,56.04
2017-07-15T10:29:08.440Z,55.08
2017-07-15T10:30:17.508Z,54.6
2017-07-15T10:31:26.571Z,54.21
2017-07-15T10:32:35.645Z,54.21
2017-07-15T10:33:44.740Z,54.5
2017-07-15T10:34:53.906Z,54.21
2017-07-15T10:36:03.095Z,55.66
2017-07-15T10:37:12.303Z,56.14
2017-07-15T10:38:21.812Z,56.33
2017-07-15T10:39:30.865Z,57.23
2017-07-15T10:40:39.909Z,57.23
2017-07-15T10:41:49.067Z,57.81
2017-07-15T10:42:58.375Z,57.29
2017-07-15T10:44:07.383Z,57.68
2017-07-15T10:45:16.515Z,58.17
2017-07-15T10:46:25.629Z,58.26
2017-07-15T10:47:34.618Z,58.36
2017-07-15T10:48:44.786Z,58.26
2017-07-15T10:49:54.117Z,57.49
2017-07-15T10:51:03.281Z,56.74
2017-07-15T10:52:12.293Z,55.98
2017-07-15T10:53:21.235Z,56.16
2017-07-15T10:54:30.519Z,56.94
2017-07-15T10:55:39.452Z,56.94
2017-07-15T10:56:48.564Z,57.52
2017-07-15T10:57:57.481Z,57.32
2017-07-15T10:59:06.404Z,57.62
2017-07-15T11:00:15.417Z,57.62
2017-07-15T11:01:24.739Z,58.48
2017-07-15T11:02:33.845Z,58.48
2017-07-15T11:03:42.767Z,58.42
2017-07-15T11:04:51.861Z,57.45
2017-07-15T11:06:00.839Z,56.39
2017-07-15T11:07:09.861Z,56.1
2017-07-15T11:08:18.923Z,55.9
2017-07-15T11:09:28.034Z,55.71
2017-07-15T11:10:37.086Z,55.62
2017-07-15T11:11:46.215Z,56.1
2017-07-15T11:12:55.278Z,55.9
2017-07-15T11:14:04.199Z,56.16
2017-07-15T11:15:13.341Z,56.58
2017-07-15T11:16:22.439Z,56.94
2017-07-15T11:17:31.364Z,56.36
2017-07-15T11:18:40.318Z,56.36
2017-07-15T11:19:49.368Z,56.07
2017-07-15T11:20:58.381Z,55.4
2017-07-15T11:22:07.340Z,54.65
2017-07-15T11:23:16.265Z,54.17
2017-07-15T11:24:25.190Z,54.65
2017-07-15T11:25:34.249Z,53.78
2017-07-15T11:26:43.206Z,53.69
2017-07-15T11:27:52.137Z,53.88
2017-07-15T11:29:01.157Z,53.91
2017-07-15T11:30:10.242Z,52.84
2017-07-15T11:31:19.357Z,53.03
2017-07-15T11:32:28.285Z,53.03
2017-07-15T11:33:37.211Z,52.75
2017-07-15T11:34:46.139Z,51.1
2017-07-15T11:35:55.426Z,51.49
2017-07-15T11:37:04.383Z,52.07
2017-07-15T11:38:13.336Z,52.72
2017-07-15T11:39:22.285Z,53.01
2017-07-15T11:40:31.239Z,53.69
2017-07-15T11:41:40.201Z,54.46
2017-07-15T11:42:49.149Z,54.43
2017-07-15T11:43:58.097Z,55.2
2017-07-15T11:45:07.041Z,55.1
2017-07-15T11:46:15.992Z,54.82
2017-07-15T11:47:24.943Z,55.1
2017-07-15T11:48:33.888Z,55.2
2017-07-15T11:49:42.840Z,54.91
2017-07-15T11:50:51.796Z,54.33
2017-07-15T11:52:00.747Z,54.33
2017-07-15T11:53:10.035Z,54.33
2017-07-15T11:54:18.979Z,54.43
2017-07-15T11:55:28.251Z,54.24
2017-07-15T11:56:37.200Z,53.2
2017-07-15T11:57:46.155Z,53.75
2017-07-15T11:58:55.105Z,53.69
2017-07-15T12:00:04.068Z,53.78
2017-07-15T12:01:13.023Z,53.39
2017-07-15T12:02:21.977Z,54.46
2017-07-15T12:03:30.937Z,53.3
2017-07-15T12:04:39.893Z,53.39
2017-07-15T12:05:48.848Z,53.78
2017-07-15T12:06:57.807Z,53.39
2017-07-15T12:08:06.752Z,52.04
2017-07-15T12:09:15.722Z,51.27
2017-07-15T12:10:24.672Z,51.46
2017-07-15T12:11:33.622Z,51.65
2017-07-15T12:12:42.572Z,51.56
2017-07-15T12:13:51.533Z,50.59
2017-07-15T12:15:00.474Z,51.27
2017-07-15T12:16:09.412Z,51.56
2017-07-15T12:17:18.697Z,52.72
2017-07-15T12:18:27.642Z,53.78
2017-07-15T12:19:36.588Z,54.27
2017-07-15T12:20:45.626Z,54.43
2017-07-15T12:21:54.578Z,54.24
2017-07-15T12:23:03.529Z,54.24
2017-07-15T12:24:12.473Z,54.14
2017-07-15T12:25:21.417Z,53.95
2017-07-15T12:26:30.376Z,54.53
2017-07-15T12:27:39.330Z,54.14
2017-07-15T12:28:48.282Z,54.14
2017-07-15T12:29:57.238Z,53.75
2017-07-15T12:31:06.195Z,52.69
2017-07-15T12:32:15.143Z,51.99
2017-07-15T12:33:24.096Z,51.89
2017-07-15T12:34:33.056Z,52.47
2017-07-15T12:35:42.336Z,52.86
2017-07-15T12:36:51.293Z,53.63
2017-07-15T12:38:00.242Z,54.21
2017-07-15T12:39:09.284Z,55.27
2017-07-15T12:40:18.233Z,55.27
2017-07-15T12:41:27.187Z,55.66
2017-07-15T12:42:36.131Z,55.56
2017-07-15T12:43:45.081Z,56.16
2017-07-15T12:44:54.032Z,55.4
2017-07-15T12:46:02.972Z,55.68
2017-07-15T12:47:11.955Z,55.78
2017-07-15T12:48:20.907Z,55.68
2017-07-15T12:49:29.856Z,55.78
2017-07-15T12:50:38.805Z,55.49
2017-07-15T12:51:47.755Z,56.07
2017-07-15T12:52:56.700Z,55.76
2017-07-15T12:54:05.625Z,55.94
2017-07-15T12:55:14.879Z,56.04
2017-07-15T12:56:23.847Z,55.46
2017-07-15T12:57:32.977Z,55.01
2017-07-15T12:58:41.908Z,55.1
2017-07-15T12:59:50.851Z,54.91
2017-07-15T13:00:59.979Z,54.82
2017-07-15T13:02:08.941Z,54.24
2017-07-15T13:03:17.968Z,54.43
2017-07-15T13:04:26.871Z,54.05
2017-07-15T13:05:36.039Z,53.85
2017-07-15T13:06:45.467Z,54.05
2017-07-15T13:07:55.253Z,53.95
2017-07-15T13:09:04.284Z,53.75
2017-07-15T13:10:13.357Z,53.85
2017-07-15T13:11:22.277Z,54.43
2017-07-15T13:12:31.197Z,53.75
2017-07-15T13:13:40.444Z,54.24
2017-07-15T13:14:49.366Z,53.95
2017-07-15T13:15:58.378Z,53.95
2017-07-15T13:17:07.374Z,54.14
2017-07-15T13:18:16.375Z,53.66
2017-07-15T13:19:25.302Z,53.95
2017-07-15T13:20:34.258Z,54.24
2017-07-15T13:21:43.489Z,53.75
2017-07-15T13:22:52.417Z,54.43
2017-07-15T13:24:01.343Z,54.14
2017-07-15T13:25:10.400Z,54.33
2017-07-15T13:26:19.492Z,54.53
2017-07-15T13:27:28.971Z,54.33
2017-07-15T13:28:37.900Z,54.33
2017-07-15T13:29:46.816Z,53.69
2017-07-15T13:30:55.864Z,53.27
2017-07-15T13:32:04.800Z,53.59
2017-07-15T13:33:13.741Z,53.69
2017-07-15T13:34:22.692Z,53.59
2017-07-15T13:35:31.640Z,53.49
2017-07-15T13:36:40.595Z,52.81
2017-07-15T13:37:49.547Z,51.46
2017-07-15T13:38:58.710Z,52.04
2017-07-15T13:40:07.665Z,51.95
2017-07-15T13:41:16.611Z,51.65
2017-07-15T13:42:25.566Z,51.95
2017-07-15T13:43:34.567Z,52.04
2017-07-15T13:44:43.508Z,51.07
2017-07-15T13:45:52.459Z,50.59
2017-07-15T13:47:01.418Z,50.5
2017-07-15T13:48:10.359Z,50.5
2017-07-15T13:49:19.440Z,50.69
2017-07-15T13:50:28.400Z,50.59
2017-07-15T13:51:37.347Z,50.5
2017-07-15T13:52:46.307Z,50.11
2017-07-15T13:53:55.247Z,49.63
2017-07-15T13:55:04.195Z,49.44
2017-07-15T13:56:13.141Z,49.63
2017-07-15T13:57:22.087Z,49.63
2017-07-15T13:58:31.033Z,49.85
2017-07-15T13:59:39.988Z,49.85
2017-07-15T14:00:48.944Z,49.37
2017-07-15T14:01:57.894Z,49.75
2017-07-15T14:03:06.843Z,49.07
2017-07-15T14:04:15.792Z,48.79
2017-07-15T14:05:24.739Z,49.27
2017-07-15T14:06:33.694Z,50.04
2017-07-15T14:07:42.649Z,48.39
2017-07-15T14:08:51.600Z,48.79
2017-07-15T14:10:00.554Z,48.69
2017-07-15T14:11:09.503Z,49.55
2017-07-15T14:12:18.446Z,49.55
2017-07-15T14:13:27.384Z,49.46
2017-07-15T14:14:36.308Z,49.53
2017-07-15T14:15:45.230Z,50.13
2017-07-15T14:16:54.150Z,49.63
2017-07-15T14:18:03.078Z,49.63
2017-07-15T14:19:12.358Z,50.31
2017-07-15T14:20:21.504Z,50.21
2017-07-15T14:21:30.503Z,50.18
2017-07-15T14:22:39.431Z,49.9
2017-07-15T14:23:48.361Z,50.28
2017-07-15T14:24:57.357Z,50.57
2017-07-15T14:26:06.294Z,51.34
2017-07-15T14:27:15.613Z,51.44
2017-07-15T14:28:24.622Z,52.01
2017-07-15T14:29:33.539Z,51.15
2017-07-15T14:30:42.562Z,51.73
2017-07-15T14:31:51.489Z,51.8
2017-07-15T14:33:00.411Z,51.99
2017-07-15T14:34:09.596Z,52.19
2017-07-15T14:35:18.579Z,51.61
2017-07-15T14:36:27.602Z,51.22
2017-07-15T14:37:36.528Z,50.64
2017-07-15T14:38:45.596Z,50.45
2017-07-15T14:39:54.517Z,49.39
2017-07-15T14:41:03.446Z,49.48
2017-07-15T14:42:12.359Z,49.48
2017-07-15T14:43:21.350Z,49
2017-07-15T14:44:30.482Z,48.9
2017-07-15T14:45:39.557Z,49.87
2017-07-15T14:46:48.573Z,50.06
2017-07-15T14:47:57.495Z,50.06
2017-07-15T14:49:06.438Z,49.77
2017-07-15T14:50:15.388Z,49.7
2017-07-15T14:51:24.373Z,49.58
2017-07-15T14:52:33.642Z,49.8
2017-07-15T14:53:42.654Z,49.51